sensor_id;sensor_type;location;lat;lon;timestamp;temperature;humidity
63202;DHT22;49296;48.188;11.566;2022-07-29T00:01:13;22.04;57.89
63202;DHT22;49296;48.188;11.566;2022-07-29T00:03:39;22.02;58.15
63202;DHT22;49296;48.188;11.566;2022-07-29T00:06:06;22.19;57.84
63202;DHT22;49296;48.188;11.566;2022-07-29T00:08:34;21.95;58.44
63202;DHT22;49296;48.188;11.566;2022-07-29T00:11:00;22.01;58.31
63202;DHT22;49296;48.188;11.566;2022-07-29T00:13:27;22.05;58.26
63202;DHT22;49296;48.188;11.566;2022-07-29T00:15:53;21.85;58.81
63202;DHT22;49296;48.188;11.566;2022-07-29T00:18:20;21.77;59.19
63202;DHT22;49296;48.188;11.566;2022-07-29T00:20:46;21.79;59.34
63202;DHT22;49296;48.188;11.566;2022-07-29T00:23:12;21.92;59.02
63202;DHT22;49296;48.188;11.566;2022-07-29T00:25:40;21.81;59.70
63202;DHT22;49296;48.188;11.566;2022-07-29T00:28:07;21.73;60.08
63202;DHT22;49296;48.188;11.566;2022-07-29T00:30:33;21.75;60.26
63202;DHT22;49296;48.188;11.566;2022-07-29T00:33:00;21.85;59.95
63202;DHT22;49296;48.188;11.566;2022-07-29T00:35:26;21.75;60.57
63202;DHT22;49296;48.188;11.566;2022-07-29T00:38:10;21.47;61.96
63202;DHT22;49296;48.188;11.566;2022-07-29T00:40:37;21.46;62.34
63202;DHT22;49296;48.188;11.566;2022-07-29T00:43:05;21.51;62.32
63202;DHT22;49296;48.188;11.566;2022-07-29T00:45:32;21.62;62.06
63202;DHT22;49296;48.188;11.566;2022-07-29T00:47:58;21.78;61.55
63202;DHT22;49296;48.188;11.566;2022-07-29T00:50:25;21.82;61.36
63202;DHT22;49296;48.188;11.566;2022-07-29T00:52:52;21.85;61.14
63202;DHT22;49296;48.188;11.566;2022-07-29T00:55:18;21.71;61.19
63202;DHT22;49296;48.188;11.566;2022-07-29T00:57:45;21.71;61.29
63202;DHT22;49296;48.188;11.566;2022-07-29T01:00:14;21.53;61.59
63202;DHT22;49296;48.188;11.566;2022-07-29T01:02:42;21.55;61.44
63202;DHT22;49296;48.188;11.566;2022-07-29T01:05:09;21.46;61.70
63202;DHT22;49296;48.188;11.566;2022-07-29T01:07:36;21.55;61.54
63202;DHT22;49296;48.188;11.566;2022-07-29T01:10:03;21.65;61.27
63202;DHT22;49296;48.188;11.566;2022-07-29T01:12:30;21.71;60.97
63202;DHT22;49296;48.188;11.566;2022-07-29T01:14:58;21.92;60.48
63202;DHT22;49296;48.188;11.566;2022-07-29T01:17:27;21.88;59.96
63202;DHT22;49296;48.188;11.566;2022-07-29T01:19:56;21.70;60.26
63202;DHT22;49296;48.188;11.566;2022-07-29T01:22:28;21.96;59.84
63202;DHT22;49296;48.188;11.566;2022-07-29T01:27:45;22.32;59.22
63202;DHT22;49296;48.188;11.566;2022-07-29T01:30:15;22.41;59.09
63202;DHT22;49296;48.188;11.566;2022-07-29T01:32:41;22.47;58.98
63202;DHT22;49296;48.188;11.566;2022-07-29T01:35:10;22.54;59.41
63202;DHT22;49296;48.188;11.566;2022-07-29T01:37:43;22.64;58.91
63202;DHT22;49296;48.188;11.566;2022-07-29T01:40:11;22.69;59.04
63202;DHT22;49296;48.188;11.566;2022-07-29T01:42:41;22.65;58.88
63202;DHT22;49296;48.188;11.566;2022-07-29T01:45:10;22.69;58.82
63202;DHT22;49296;48.188;11.566;2022-07-29T01:47:40;22.76;58.79
63202;DHT22;49296;48.188;11.566;2022-07-29T01:50:08;22.69;58.42
63202;DHT22;49296;48.188;11.566;2022-07-29T01:52:37;22.75;58.38
63202;DHT22;49296;48.188;11.566;2022-07-29T01:55:07;22.71;58.24
63202;DHT22;49296;48.188;11.566;2022-07-29T01:57:36;22.78;58.39
63202;DHT22;49296;48.188;11.566;2022-07-29T02:00:04;22.81;58.69
63202;DHT22;49296;48.188;11.566;2022-07-29T02:02:31;22.78;59.01
63202;DHT22;49296;48.188;11.566;2022-07-29T02:05:00;22.71;59.56
63202;DHT22;49296;48.188;11.566;2022-07-29T02:07:28;22.69;59.88
63202;DHT22;49296;48.188;11.566;2022-07-29T02:09:55;22.72;59.94
63202;DHT22;49296;48.188;11.566;2022-07-29T02:12:23;22.74;60.11
63202;DHT22;49296;48.188;11.566;2022-07-29T02:14:50;22.69;59.97
63202;DHT22;49296;48.188;11.566;2022-07-29T02:17:19;22.65;60.06
63202;DHT22;49296;48.188;11.566;2022-07-29T02:19:47;22.71;59.97
63202;DHT22;49296;48.188;11.566;2022-07-29T02:22:15;22.67;59.90
63202;DHT22;49296;48.188;11.566;2022-07-29T02:24:42;22.61;60.06
63202;DHT22;49296;48.188;11.566;2022-07-29T02:27:10;22.67;60.06
63202;DHT22;49296;48.188;11.566;2022-07-29T02:29:37;22.63;59.98
63202;DHT22;49296;48.188;11.566;2022-07-29T02:32:05;22.74;59.69
63202;DHT22;49296;48.188;11.566;2022-07-29T02:34:33;22.72;59.64
63202;DHT22;49296;48.188;11.566;2022-07-29T02:37:00;22.72;59.74
63202;DHT22;49296;48.188;11.566;2022-07-29T02:39:28;22.72;59.64
63202;DHT22;49296;48.188;11.566;2022-07-29T02:41:57;22.69;59.67
63202;DHT22;49296;48.188;11.566;2022-07-29T02:44:25;22.65;59.55
63202;DHT22;49296;48.188;11.566;2022-07-29T02:46:53;22.60;59.95
63202;DHT22;49296;48.188;11.566;2022-07-29T02:49:25;22.60;59.70
63202;DHT22;49296;48.188;11.566;2022-07-29T02:51:57;22.63;59.65
63202;DHT22;49296;48.188;11.566;2022-07-29T02:54:26;22.65;59.34
63202;DHT22;49296;48.188;11.566;2022-07-29T02:56:56;22.67;59.18
63202;DHT22;49296;48.188;11.566;2022-07-29T02:59:25;22.68;59.17
63202;DHT22;49296;48.188;11.566;2022-07-29T03:01:53;22.56;59.64
63202;DHT22;49296;48.188;11.566;2022-07-29T03:04:20;22.43;60.19
63202;DHT22;49296;48.188;11.566;2022-07-29T03:06:48;22.48;60.22
63202;DHT22;49296;48.188;11.566;2022-07-29T03:09:15;22.47;60.42
63202;DHT22;49296;48.188;11.566;2022-07-29T03:11:43;22.46;60.35
63202;DHT22;49296;48.188;11.566;2022-07-29T03:14:11;22.43;60.63
63202;DHT22;49296;48.188;11.566;2022-07-29T03:16:38;22.41;60.65
63202;DHT22;49296;48.188;11.566;2022-07-29T03:19:05;22.37;60.55
63202;DHT22;49296;48.188;11.566;2022-07-29T03:21:31;22.36;60.39
63202;DHT22;49296;48.188;11.566;2022-07-29T03:23:58;22.35;60.51
63202;DHT22;49296;48.188;11.566;2022-07-29T03:26:24;22.29;60.53
63202;DHT22;49296;48.188;11.566;2022-07-29T03:28:51;22.23;60.73
63202;DHT22;49296;48.188;11.566;2022-07-29T03:31:19;22.20;60.99
63202;DHT22;49296;48.188;11.566;2022-07-29T03:33:45;22.24;60.66
63202;DHT22;49296;48.188;11.566;2022-07-29T03:36:12;22.22;60.72
63202;DHT22;49296;48.188;11.566;2022-07-29T03:38:38;22.26;60.71
63202;DHT22;49296;48.188;11.566;2022-07-29T03:41:07;22.23;60.89
63202;DHT22;49296;48.188;11.566;2022-07-29T03:43:36;22.23;60.85
63202;DHT22;49296;48.188;11.566;2022-07-29T03:46:04;22.20;61.08
63202;DHT22;49296;48.188;11.566;2022-07-29T03:48:33;22.17;61.18
63202;DHT22;49296;48.188;11.566;2022-07-29T03:51:01;22.15;61.25
63202;DHT22;49296;48.188;11.566;2022-07-29T03:53:28;22.06;61.53
63202;DHT22;49296;48.188;11.566;2022-07-29T03:55:56;22.01;61.74
63202;DHT22;49296;48.188;11.566;2022-07-29T03:58:25;22.01;61.76
63202;DHT22;49296;48.188;11.566;2022-07-29T04:00:52;22.06;61.62
63202;DHT22;49296;48.188;11.566;2022-07-29T04:03:20;22.04;61.71
63202;DHT22;49296;48.188;11.566;2022-07-29T04:05:58;21.98;61.85
63202;DHT22;49296;48.188;11.566;2022-07-29T04:08:24;21.98;61.80
63202;DHT22;49296;48.188;11.566;2022-07-29T04:10:51;21.98;61.79
63202;DHT22;49296;48.188;11.566;2022-07-29T04:13:18;21.99;61.97
63202;DHT22;49296;48.188;11.566;2022-07-29T04:15:44;21.94;61.99
63202;DHT22;49296;48.188;11.566;2022-07-29T04:18:11;21.92;62.00
63202;DHT22;49296;48.188;11.566;2022-07-29T04:20:37;21.99;61.77
63202;DHT22;49296;48.188;11.566;2022-07-29T04:23:05;22.01;61.86
63202;DHT22;49296;48.188;11.566;2022-07-29T04:25:32;21.98;61.93
63202;DHT22;49296;48.188;11.566;2022-07-29T04:27:58;21.92;62.23
63202;DHT22;49296;48.188;11.566;2022-07-29T04:30:28;21.89;62.05
63202;DHT22;49296;48.188;11.566;2022-07-29T04:32:54;21.91;62.13
63202;DHT22;49296;48.188;11.566;2022-07-29T04:35:21;21.95;62.06
63202;DHT22;49296;48.188;11.566;2022-07-29T04:37:47;21.96;62.26
63202;DHT22;49296;48.188;11.566;2022-07-29T04:40:15;21.95;62.24
63202;DHT22;49296;48.188;11.566;2022-07-29T04:42:41;22.04;62.02
63202;DHT22;49296;48.188;11.566;2022-07-29T04:45:08;22.06;62.03
63202;DHT22;49296;48.188;11.566;2022-07-29T04:47:35;22.08;62.04
63202;DHT22;49296;48.188;11.566;2022-07-29T04:50:01;22.08;62.11
63202;DHT22;49296;48.188;11.566;2022-07-29T04:52:28;22.10;62.19
63202;DHT22;49296;48.188;11.566;2022-07-29T04:54:54;22.15;62.08
63202;DHT22;49296;48.188;11.566;2022-07-29T04:57:22;22.08;61.99
63202;DHT22;49296;48.188;11.566;2022-07-29T04:59:48;22.16;62.06
63202;DHT22;49296;48.188;11.566;2022-07-29T05:02:15;22.17;61.96
63202;DHT22;49296;48.188;11.566;2022-07-29T05:04:41;22.17;61.75
63202;DHT22;49296;48.188;11.566;2022-07-29T05:07:08;22.16;61.81
63202;DHT22;49296;48.188;11.566;2022-07-29T05:09:34;22.22;61.64
63202;DHT22;49296;48.188;11.566;2022-07-29T05:12:01;22.13;61.80
63202;DHT22;49296;48.188;11.566;2022-07-29T05:14:28;22.20;61.61
63202;DHT22;49296;48.188;11.566;2022-07-29T05:16:55;22.20;61.46
63202;DHT22;49296;48.188;11.566;2022-07-29T05:19:22;22.16;61.91
63202;DHT22;49296;48.188;11.566;2022-07-29T05:21:49;22.16;62.10
63202;DHT22;49296;48.188;11.566;2022-07-29T05:24:15;22.16;61.79
63202;DHT22;49296;48.188;11.566;2022-07-29T05:26:42;22.09;62.04
63202;DHT22;49296;48.188;11.566;2022-07-29T05:29:08;22.08;62.11
63202;DHT22;49296;48.188;11.566;2022-07-29T05:31:37;22.05;62.13
63202;DHT22;49296;48.188;11.566;2022-07-29T05:36:44;21.98;62.25
63202;DHT22;49296;48.188;11.566;2022-07-29T05:39:10;22.02;61.91
63202;DHT22;49296;48.188;11.566;2022-07-29T05:41:37;21.58;62.92
63202;DHT22;49296;48.188;11.566;2022-07-29T05:44:05;21.75;62.46
63202;DHT22;49296;48.188;11.566;2022-07-29T05:46:34;21.91;62.23
63202;DHT22;49296;48.188;11.566;2022-07-29T05:49:02;22.01;61.86
63202;DHT22;49296;48.188;11.566;2022-07-29T05:51:29;22.13;61.68
63202;DHT22;49296;48.188;11.566;2022-07-29T05:53:56;22.22;61.51
63202;DHT22;49296;48.188;11.566;2022-07-29T05:56:22;22.23;60.60
63202;DHT22;49296;48.188;11.566;2022-07-29T05:58:49;22.10;60.07
63202;DHT22;49296;48.188;11.566;2022-07-29T06:01:15;22.17;59.88
63202;DHT22;49296;48.188;11.566;2022-07-29T06:03:42;22.24;60.02
63202;DHT22;49296;48.188;11.566;2022-07-29T06:06:10;22.26;60.18
63202;DHT22;49296;48.188;11.566;2022-07-29T06:08:36;22.17;60.15
63202;DHT22;49296;48.188;11.566;2022-07-29T06:11:11;22.24;60.09
63202;DHT22;49296;48.188;11.566;2022-07-29T06:13:37;22.13;60.56
63202;DHT22;49296;48.188;11.566;2022-07-29T06:16:04;22.28;61.16
63202;DHT22;49296;48.188;11.566;2022-07-29T06:18:30;22.35;59.89
63202;DHT22;49296;48.188;11.566;2022-07-29T06:23:46;22.40;59.93
63202;DHT22;49296;48.188;11.566;2022-07-29T06:26:13;22.47;59.71
63202;DHT22;49296;48.188;11.566;2022-07-29T06:28:39;22.47;59.47
63202;DHT22;49296;48.188;11.566;2022-07-29T06:31:05;22.63;59.21
63202;DHT22;49296;48.188;11.566;2022-07-29T06:33:32;22.67;58.92
63202;DHT22;49296;48.188;11.566;2022-07-29T06:35:59;22.75;58.86
63202;DHT22;49296;48.188;11.566;2022-07-29T06:38:25;22.85;58.10
63202;DHT22;49296;48.188;11.566;2022-07-29T06:40:53;22.88;57.35
63202;DHT22;49296;48.188;11.566;2022-07-29T06:43:31;22.96;56.88
63202;DHT22;49296;48.188;11.566;2022-07-29T06:45:59;22.98;55.94
63202;DHT22;49296;48.188;11.566;2022-07-29T06:48:29;23.02;55.81
63202;DHT22;49296;48.188;11.566;2022-07-29T06:50:58;22.91;56.30
63202;DHT22;49296;48.188;11.566;2022-07-29T06:53:25;22.75;56.46
63202;DHT22;49296;48.188;11.566;2022-07-29T06:55:51;22.67;56.58
63202;DHT22;49296;48.188;11.566;2022-07-29T06:58:19;22.54;56.80
63202;DHT22;49296;48.188;11.566;2022-07-29T07:00:46;22.46;56.04
63202;DHT22;49296;48.188;11.566;2022-07-29T07:03:13;22.51;55.17
63202;DHT22;49296;48.188;11.566;2022-07-29T07:05:39;22.44;55.55
63202;DHT22;49296;48.188;11.566;2022-07-29T07:08:06;22.50;55.67
63202;DHT22;49296;48.188;11.566;2022-07-29T07:10:33;22.69;55.84
63202;DHT22;49296;48.188;11.566;2022-07-29T07:12:59;22.75;55.80
63202;DHT22;49296;48.188;11.566;2022-07-29T07:15:28;22.67;55.47
63202;DHT22;49296;48.188;11.566;2022-07-29T07:17:54;22.78;55.45
63202;DHT22;49296;48.188;11.566;2022-07-29T07:20:22;22.72;55.15
63202;DHT22;49296;48.188;11.566;2022-07-29T07:22:48;22.78;55.17
63202;DHT22;49296;48.188;11.566;2022-07-29T07:25:15;22.87;54.71
63202;DHT22;49296;48.188;11.566;2022-07-29T07:27:42;22.99;54.42
63202;DHT22;49296;48.188;11.566;2022-07-29T07:30:09;23.08;54.47
63202;DHT22;49296;48.188;11.566;2022-07-29T07:32:37;22.92;54.35
63202;DHT22;49296;48.188;11.566;2022-07-29T07:35:04;23.01;54.54
63202;DHT22;49296;48.188;11.566;2022-07-29T07:37:30;23.02;54.43
63202;DHT22;49296;48.188;11.566;2022-07-29T07:39:57;23.02;53.69
63202;DHT22;49296;48.188;11.566;2022-07-29T07:42:24;23.01;54.11
63202;DHT22;49296;48.188;11.566;2022-07-29T07:44:50;23.19;54.01
63202;DHT22;49296;48.188;11.566;2022-07-29T07:47:17;23.29;53.63
63202;DHT22;49296;48.188;11.566;2022-07-29T07:49:46;23.34;53.45
63202;DHT22;49296;48.188;11.566;2022-07-29T07:52:12;23.33;53.44
63202;DHT22;49296;48.188;11.566;2022-07-29T07:54:39;23.30;53.91
63202;DHT22;49296;48.188;11.566;2022-07-29T07:57:05;23.39;53.56
63202;DHT22;49296;48.188;11.566;2022-07-29T07:59:32;23.47;52.48
63202;DHT22;49296;48.188;11.566;2022-07-29T08:01:58;23.46;51.87
63202;DHT22;49296;48.188;11.566;2022-07-29T08:04:26;23.54;51.20
63202;DHT22;49296;48.188;11.566;2022-07-29T08:06:53;23.57;51.08
63202;DHT22;49296;48.188;11.566;2022-07-29T08:09:20;23.55;51.19
63202;DHT22;49296;48.188;11.566;2022-07-29T08:11:46;23.67;51.45
63202;DHT22;49296;48.188;11.566;2022-07-29T08:14:13;23.68;51.31
63202;DHT22;49296;48.188;11.566;2022-07-29T08:16:39;23.70;50.64
63202;DHT22;49296;48.188;11.566;2022-07-29T08:19:06;23.74;50.80
63202;DHT22;49296;48.188;11.566;2022-07-29T08:21:32;23.77;50.36
63202;DHT22;49296;48.188;11.566;2022-07-29T08:24:00;23.74;50.81
63202;DHT22;49296;48.188;11.566;2022-07-29T08:26:41;23.77;50.93
63202;DHT22;49296;48.188;11.566;2022-07-29T08:29:08;23.84;51.19
63202;DHT22;49296;48.188;11.566;2022-07-29T08:31:35;23.95;51.26
63202;DHT22;49296;48.188;11.566;2022-07-29T08:34:01;24.09;51.05
63202;DHT22;49296;48.188;11.566;2022-07-29T08:36:28;24.20;50.50
63202;DHT22;49296;48.188;11.566;2022-07-29T08:38:55;24.30;50.15
63202;DHT22;49296;48.188;11.566;2022-07-29T08:41:23;24.51;49.80
63202;DHT22;49296;48.188;11.566;2022-07-29T08:43:49;24.58;49.90
63202;DHT22;49296;48.188;11.566;2022-07-29T08:46:16;24.65;49.39
63202;DHT22;49296;48.188;11.566;2022-07-29T08:48:43;24.74;49.24
63202;DHT22;49296;48.188;11.566;2022-07-29T08:51:12;24.81;49.45
63202;DHT22;49296;48.188;11.566;2022-07-29T08:53:40;24.84;49.80
63202;DHT22;49296;48.188;11.566;2022-07-29T08:56:08;24.84;49.77
63202;DHT22;49296;48.188;11.566;2022-07-29T08:58:38;24.74;50.53
63202;DHT22;49296;48.188;11.566;2022-07-29T09:01:05;24.77;50.12
63202;DHT22;49296;48.188;11.566;2022-07-29T09:03:33;24.91;50.09
63202;DHT22;49296;48.188;11.566;2022-07-29T09:06:00;24.95;50.27
63202;DHT22;49296;48.188;11.566;2022-07-29T09:08:27;25.16;50.14
63202;DHT22;49296;48.188;11.566;2022-07-29T09:10:53;25.24;49.64
63202;DHT22;49296;48.188;11.566;2022-07-29T09:13:20;25.27;49.61
63202;DHT22;49296;48.188;11.566;2022-07-29T09:15:48;25.05;49.68
63202;DHT22;49296;48.188;11.566;2022-07-29T09:18:30;25.05;49.95
63202;DHT22;49296;48.188;11.566;2022-07-29T09:20:59;25.09;49.89
63202;DHT22;49296;48.188;11.566;2022-07-29T09:23:58;25.13;50.11
63202;DHT22;49296;48.188;11.566;2022-07-29T09:26:27;25.06;49.91
63202;DHT22;49296;48.188;11.566;2022-07-29T09:28:53;25.19;50.05
63202;DHT22;49296;48.188;11.566;2022-07-29T09:31:22;25.20;49.95
63202;DHT22;49296;48.188;11.566;2022-07-29T09:33:55;25.27;50.04
63202;DHT22;49296;48.188;11.566;2022-07-29T09:36:23;25.10;50.31
63202;DHT22;49296;48.188;11.566;2022-07-29T09:38:56;25.20;50.08
63202;DHT22;49296;48.188;11.566;2022-07-29T09:41:23;25.36;49.93
63202;DHT22;49296;48.188;11.566;2022-07-29T09:43:53;25.24;50.35
63202;DHT22;49296;48.188;11.566;2022-07-29T09:46:21;25.40;49.67
63202;DHT22;49296;48.188;11.566;2022-07-29T09:51:31;25.29;50.23
63202;DHT22;49296;48.188;11.566;2022-07-29T09:53:57;25.31;49.84
63202;DHT22;49296;48.188;11.566;2022-07-29T09:56:37;25.08;50.44
63202;DHT22;49296;48.188;11.566;2022-07-29T09:59:05;25.19;50.24
63202;DHT22;49296;48.188;11.566;2022-07-29T10:01:31;25.09;50.69
63202;DHT22;49296;48.188;11.566;2022-07-29T10:03:58;25.30;50.57
63202;DHT22;49296;48.188;11.566;2022-07-29T10:06:24;25.27;50.36
63202;DHT22;49296;48.188;11.566;2022-07-29T10:08:52;25.22;50.65
63202;DHT22;49296;48.188;11.566;2022-07-29T10:11:19;25.33;50.52
63202;DHT22;49296;48.188;11.566;2022-07-29T10:13:47;25.19;49.94
63202;DHT22;49296;48.188;11.566;2022-07-29T10:16:14;25.15;49.60
63202;DHT22;49296;48.188;11.566;2022-07-29T10:18:41;25.30;49.40
63202;DHT22;49296;48.188;11.566;2022-07-29T10:21:08;25.34;49.98
63202;DHT22;49296;48.188;11.566;2022-07-29T10:23:35;25.18;50.14
63202;DHT22;49296;48.188;11.566;2022-07-29T10:26:03;25.15;50.47
63202;DHT22;49296;48.188;11.566;2022-07-29T10:28:30;25.37;50.55
63202;DHT22;49296;48.188;11.566;2022-07-29T10:30:58;25.54;50.20
63202;DHT22;49296;48.188;11.566;2022-07-29T10:33:37;25.54;49.89
63202;DHT22;49296;48.188;11.566;2022-07-29T10:36:10;25.51;49.72
63202;DHT22;49296;48.188;11.566;2022-07-29T10:38:41;25.53;49.89
63202;DHT22;49296;48.188;11.566;2022-07-29T10:41:23;25.38;50.22
63202;DHT22;49296;48.188;11.566;2022-07-29T10:43:53;25.46;50.19
63202;DHT22;49296;48.188;11.566;2022-07-29T10:46:20;25.60;50.38
63202;DHT22;49296;48.188;11.566;2022-07-29T10:49:12;25.72;49.56
63202;DHT22;49296;48.188;11.566;2022-07-29T10:51:52;25.68;48.98
63202;DHT22;49296;48.188;11.566;2022-07-29T10:54:35;25.72;48.43
63202;DHT22;49296;48.188;11.566;2022-07-29T11:06:07;26.10;47.49
63202;DHT22;49296;48.188;11.566;2022-07-29T11:08:33;26.20;47.32
63202;DHT22;49296;48.188;11.566;2022-07-29T11:13:48;26.23;48.57
63202;DHT22;49296;48.188;11.566;2022-07-29T11:16:16;26.39;47.51
63202;DHT22;49296;48.188;11.566;2022-07-29T11:21:36;26.54;47.52
63202;DHT22;49296;48.188;11.566;2022-07-29T11:24:11;26.77;46.45
63202;DHT22;49296;48.188;11.566;2022-07-29T11:26:37;26.74;46.57
63202;DHT22;49296;48.188;11.566;2022-07-29T11:29:05;26.86;46.33
63202;DHT22;49296;48.188;11.566;2022-07-29T11:31:36;26.92;45.86
63202;DHT22;49296;48.188;11.566;2022-07-29T11:34:16;26.81;45.46
63202;DHT22;49296;48.188;11.566;2022-07-29T11:39:28;26.58;45.85
63202;DHT22;49296;48.188;11.566;2022-07-29T11:51:00;27.14;43.99
63202;DHT22;49296;48.188;11.566;2022-07-29T11:56:31;26.91;43.83
63202;DHT22;49296;48.188;11.566;2022-07-29T12:01:28;27.10;41.01
63202;DHT22;49296;48.188;11.566;2022-07-29T12:04:02;27.07;41.10
63202;DHT22;49296;48.188;11.566;2022-07-29T12:06:28;27.16;41.97
63202;DHT22;49296;48.188;11.566;2022-07-29T12:08:55;27.16;41.31
63202;DHT22;49296;48.188;11.566;2022-07-29T12:11:22;26.78;41.85
63202;DHT22;49296;48.188;11.566;2022-07-29T12:13:51;26.78;42.07
63202;DHT22;49296;48.188;11.566;2022-07-29T12:16:17;26.67;43.00
63202;DHT22;49296;48.188;11.566;2022-07-29T12:18:54;26.69;43.03
63202;DHT22;49296;48.188;11.566;2022-07-29T12:21:20;26.84;42.89
63202;DHT22;49296;48.188;11.566;2022-07-29T12:26:15;26.82;43.14
63202;DHT22;49296;48.188;11.566;2022-07-29T12:28:41;26.69;43.67
63202;DHT22;49296;48.188;11.566;2022-07-29T12:31:13;26.96;43.18
63202;DHT22;49296;48.188;11.566;2022-07-29T12:33:40;26.69;44.20
63202;DHT22;49296;48.188;11.566;2022-07-29T12:36:07;26.94;44.33
63202;DHT22;49296;48.188;11.566;2022-07-29T12:38:34;26.88;44.14
63202;DHT22;49296;48.188;11.566;2022-07-29T12:41:01;26.85;44.03
63202;DHT22;49296;48.188;11.566;2022-07-29T12:43:27;27.06;43.55
63202;DHT22;49296;48.188;11.566;2022-07-29T12:45:54;27.09;43.34
63202;DHT22;49296;48.188;11.566;2022-07-29T12:48:33;27.06;43.13
63202;DHT22;49296;48.188;11.566;2022-07-29T12:51:01;26.89;44.02
63202;DHT22;49296;48.188;11.566;2022-07-29T12:53:28;26.78;44.11
63202;DHT22;49296;48.188;11.566;2022-07-29T12:55:56;26.55;44.39
63202;DHT22;49296;48.188;11.566;2022-07-29T12:58:31;26.65;44.34
63202;DHT22;49296;48.188;11.566;2022-07-29T13:01:03;26.52;43.71
63202;DHT22;49296;48.188;11.566;2022-07-29T13:03:41;26.26;43.84
63202;DHT22;49296;48.188;11.566;2022-07-29T13:08:58;26.12;43.07
63202;DHT22;49296;48.188;11.566;2022-07-29T13:11:28;26.15;43.11
63202;DHT22;49296;48.188;11.566;2022-07-29T13:13:54;26.05;43.80
63202;DHT22;49296;48.188;11.566;2022-07-29T13:16:21;25.95;43.91
63202;DHT22;49296;48.188;11.566;2022-07-29T13:18:54;26.06;43.79
63202;DHT22;49296;48.188;11.566;2022-07-29T13:21:29;25.96;44.25
63202;DHT22;49296;48.188;11.566;2022-07-29T13:23:56;25.88;44.45
63202;DHT22;49296;48.188;11.566;2022-07-29T13:26:22;25.81;45.19
63202;DHT22;49296;48.188;11.566;2022-07-29T13:28:49;25.95;45.18
63202;DHT22;49296;48.188;11.566;2022-07-29T13:31:15;25.93;45.27
63202;DHT22;49296;48.188;11.566;2022-07-29T13:33:42;25.78;45.49
63202;DHT22;49296;48.188;11.566;2022-07-29T13:36:10;25.68;45.66
63202;DHT22;49296;48.188;11.566;2022-07-29T13:38:37;25.58;45.95
63202;DHT22;49296;48.188;11.566;2022-07-29T13:41:04;25.60;46.18
63202;DHT22;49296;48.188;11.566;2022-07-29T13:43:30;25.68;46.34
63202;DHT22;49296;48.188;11.566;2022-07-29T13:45:57;25.77;46.21
63202;DHT22;49296;48.188;11.566;2022-07-29T13:48:23;25.74;46.64
63202;DHT22;49296;48.188;11.566;2022-07-29T13:50:50;25.77;46.67
63202;DHT22;49296;48.188;11.566;2022-07-29T13:53:18;25.78;46.75
63202;DHT22;49296;48.188;11.566;2022-07-29T13:55:44;25.75;47.10
63202;DHT22;49296;48.188;11.566;2022-07-29T13:58:11;25.75;47.15
63202;DHT22;49296;48.188;11.566;2022-07-29T14:00:37;25.71;46.67
63202;DHT22;49296;48.188;11.566;2022-07-29T14:03:04;25.89;45.95
63202;DHT22;49296;48.188;11.566;2022-07-29T14:05:31;26.03;44.70
63202;DHT22;49296;48.188;11.566;2022-07-29T14:07:58;26.09;44.32
63202;DHT22;49296;48.188;11.566;2022-07-29T14:10:26;26.10;44.79
63202;DHT22;49296;48.188;11.566;2022-07-29T14:12:52;26.19;44.06
63202;DHT22;49296;48.188;11.566;2022-07-29T14:15:19;26.15;44.17
63202;DHT22;49296;48.188;11.566;2022-07-29T14:17:46;26.06;43.84
63202;DHT22;49296;48.188;11.566;2022-07-29T14:20:12;25.99;43.99
63202;DHT22;49296;48.188;11.566;2022-07-29T14:22:40;25.96;44.39
63202;DHT22;49296;48.188;11.566;2022-07-29T14:25:07;26.08;43.78
63202;DHT22;49296;48.188;11.566;2022-07-29T14:27:37;26.15;43.63
63202;DHT22;49296;48.188;11.566;2022-07-29T14:30:04;26.09;44.16
63202;DHT22;49296;48.188;11.566;2022-07-29T14:32:31;25.99;44.67
63202;DHT22;49296;48.188;11.566;2022-07-29T14:34:57;26.17;44.70
63202;DHT22;49296;48.188;11.566;2022-07-29T14:37:24;26.16;44.95
63202;DHT22;49296;48.188;11.566;2022-07-29T14:39:50;26.16;45.19
63202;DHT22;49296;48.188;11.566;2022-07-29T14:42:17;26.09;45.88
63202;DHT22;49296;48.188;11.566;2022-07-29T14:44:45;25.92;46.25
63202;DHT22;49296;48.188;11.566;2022-07-29T14:47:12;26.02;46.43
63202;DHT22;49296;48.188;11.566;2022-07-29T14:49:39;25.85;46.33
63202;DHT22;49296;48.188;11.566;2022-07-29T14:52:05;25.91;47.18
63202;DHT22;49296;48.188;11.566;2022-07-29T14:54:32;25.93;46.56
63202;DHT22;49296;48.188;11.566;2022-07-29T14:56:59;25.96;49.61
63202;DHT22;49296;48.188;11.566;2022-07-29T14:59:25;25.80;48.99
63202;DHT22;49296;48.188;11.566;2022-07-29T15:01:54;25.88;51.43
63202;DHT22;49296;48.188;11.566;2022-07-29T15:04:20;25.65;48.45
63202;DHT22;49296;48.188;11.566;2022-07-29T15:06:47;25.57;48.91
63202;DHT22;49296;48.188;11.566;2022-07-29T15:09:13;25.64;49.93
63202;DHT22;49296;48.188;11.566;2022-07-29T15:11:40;25.54;48.69
63202;DHT22;49296;48.188;11.566;2022-07-29T15:14:07;25.40;49.45
63202;DHT22;49296;48.188;11.566;2022-07-29T15:16:35;25.16;49.00
63202;DHT22;49296;48.188;11.566;2022-07-29T15:19:03;25.08;49.92
63202;DHT22;49296;48.188;11.566;2022-07-29T15:21:30;25.02;50.60
63202;DHT22;49296;48.188;11.566;2022-07-29T15:23:57;25.12;50.37
63202;DHT22;49296;48.188;11.566;2022-07-29T15:26:24;24.95;50.69
63202;DHT22;49296;48.188;11.566;2022-07-29T15:28:50;24.91;51.10
63202;DHT22;49296;48.188;11.566;2022-07-29T15:31:17;24.63;55.06
63202;DHT22;49296;48.188;11.566;2022-07-29T15:33:43;24.23;57.01
63202;DHT22;49296;48.188;11.566;2022-07-29T15:36:11;24.24;58.12
63202;DHT22;49296;48.188;11.566;2022-07-29T15:38:38;24.01;58.14
63202;DHT22;49296;48.188;11.566;2022-07-29T15:41:05;24.10;58.31
63202;DHT22;49296;48.188;11.566;2022-07-29T15:43:32;24.22;58.69
63202;DHT22;49296;48.188;11.566;2022-07-29T15:46:00;24.26;57.69
63202;DHT22;49296;48.188;11.566;2022-07-29T15:48:44;24.27;57.52
63202;DHT22;49296;48.188;11.566;2022-07-29T15:51:12;24.40;57.13
63202;DHT22;49296;48.188;11.566;2022-07-29T15:53:39;24.50;56.77
63202;DHT22;49296;48.188;11.566;2022-07-29T15:56:05;24.47;56.97
63202;DHT22;49296;48.188;11.566;2022-07-29T15:58:32;24.34;56.59
63202;DHT22;49296;48.188;11.566;2022-07-29T16:00:59;24.53;56.45
63202;DHT22;49296;48.188;11.566;2022-07-29T16:03:26;24.56;55.35
63202;DHT22;49296;48.188;11.566;2022-07-29T16:05:52;24.64;54.41
63202;DHT22;49296;48.188;11.566;2022-07-29T16:08:20;24.53;54.88